Time;durP1;ratioP1;P1;durP2;ratioP2;P2;SDS_P1;SDS_P2;PMS_P1;PMS_P2;Temp;Humidity;BMP_temperature;BMP_pressure;BME280_temperature;BME280_humidity;BME280_pressure;Samples;Min_cycle;Max_cycle;Signal;HPM_P1;HPM_P2
2021/07/06 00:01:37;;;;;;;1.40;0.55;;;18.50;90.30;;;;;;5090745;28;20487;-84
2021/07/06 00:04:03;;;;;;;2.25;0.40;;;18.50;90.20;;;;;;5090613;28;20036;-84
2021/07/06 00:06:29;;;;;;;0.70;0.50;;;18.50;90.10;;;;;;5091208;28;20024;-84
2021/07/06 00:08:54;;;;;;;0.57;0.40;;;18.60;90.40;;;;;;5092388;28;20036;-85
2021/07/06 00:11:20;;;;;;;0.70;0.40;;;18.60;90.10;;;;;;5089329;28;20036;-83
2021/07/06 00:13:46;;;;;;;1.13;0.40;;;18.60;90.00;;;;;;5074132;28;20460;-84
2021/07/06 00:16:13;;;;;;;1.75;0.55;;;18.60;90.10;;;;;;5076156;28;20471;-83
2021/07/06 00:18:40;;;;;;;3.17;0.55;;;18.50;90.00;;;;;;5077495;28;20051;-85
2021/07/06 00:21:06;;;;;;;1.92;0.30;;;18.60;90.10;;;;;;5095286;28;20081;-84
2021/07/06 00:23:32;;;;;;;1.35;0.40;;;18.60;89.90;;;;;;5096034;28;20038;-84
2021/07/06 00:25:57;;;;;;;0.93;0.40;;;18.60;90.00;;;;;;5095141;28;20056;-84
2021/07/06 00:28:23;;;;;;;1.88;0.40;;;18.60;89.80;;;;;;5092600;28;20169;-83
2021/07/06 00:30:50;;;;;;;1.92;0.40;;;18.60;89.60;;;;;;5093678;28;20029;-84
2021/07/06 00:33:16;;;;;;;1.20;0.30;;;18.60;89.30;;;;;;5076051;28;20047;-84
2021/07/06 00:35:42;;;;;;;1.58;0.30;;;18.60;89.30;;;;;;5077191;28;20039;-84
2021/07/06 00:38:09;;;;;;;2.13;0.35;;;18.60;89.30;;;;;;5076880;28;20093;-84
2021/07/06 00:40:35;;;;;;;1.60;0.30;;;18.60;89.30;;;;;;5092359;28;20031;-84
2021/07/06 00:43:01;;;;;;;1.42;0.40;;;18.60;89.30;;;;;;5076289;28;20545;-84
2021/07/06 00:45:28;;;;;;;1.13;0.30;;;18.50;89.00;;;;;;5093186;28;20028;-85
2021/07/06 00:47:53;;;;;;;1.23;0.30;;;18.60;89.10;;;;;;5093477;28;20173;-83
2021/07/06 00:50:23;;;;;;;2.25;0.30;;;18.60;89.00;;;;;;5075556;28;20119;-84
2021/07/06 00:52:50;;;;;;;0.77;0.30;;;18.50;89.00;;;;;;5095014;28;20027;-85
2021/07/06 00:55:16;;;;;;;0.85;0.20;;;18.50;88.90;;;;;;5094133;28;20035;-81
2021/07/06 00:57:43;;;;;;;3.78;0.30;;;18.50;88.90;;;;;;5093155;28;20024;-85
2021/07/06 01:00:15;;;;;;;2.20;0.30;;;18.50;88.80;;;;;;5092991;28;20491;-83
2021/07/06 01:02:41;;;;;;;0.70;0.30;;;18.50;88.90;;;;;;5092603;28;20118;-85
2021/07/06 01:05:09;;;;;;;1.10;0.30;;;18.50;88.90;;;;;;5092676;28;20522;-86
2021/07/06 01:07:35;;;;;;;1.67;0.30;;;18.50;88.90;;;;;;5092148;28;20530;-83
2021/07/06 01:10:05;;;;;;;1.25;0.28;;;18.50;89.00;;;;;;5093106;28;20043;-83
2021/07/06 01:12:32;;;;;;;0.85;0.20;;;18.40;88.90;;;;;;5092172;28;20841;-84
2021/07/06 01:14:59;;;;;;;1.48;0.38;;;18.50;88.90;;;;;;5092795;28;20023;-84
2021/07/06 01:17:29;;;;;;;1.85;0.30;;;18.50;88.90;;;;;;5093717;28;20024;-84
2021/07/06 01:19:57;;;;;;;2.25;0.40;;;18.50;88.80;;;;;;5093173;28;20024;-83
2021/07/06 01:22:31;;;;;;;1.33;0.50;;;18.40;89.00;;;;;;5092912;28;20088;-85
2021/07/06 01:24:57;;;;;;;1.80;0.20;;;18.40;89.20;;;;;;5092204;28;20597;-83
2021/07/06 01:27:24;;;;;;;0.90;0.40;;;18.40;89.30;;;;;;5091400;28;20024;-84
2021/07/06 01:29:49;;;;;;;0.60;0.30;;;18.40;89.40;;;;;;5075117;28;20028;-84
2021/07/06 01:32:15;;;;;;;1.13;0.40;;;18.40;89.40;;;;;;5092403;28;20028;-84
2021/07/06 01:34:41;;;;;;;1.73;0.30;;;18.40;89.60;;;;;;5091614;28;20016;-82
2021/07/06 01:37:07;;;;;;;2.10;0.40;;;18.40;89.70;;;;;;5091705;28;20053;-83
2021/07/06 01:39:32;;;;;;;0.75;0.32;;;18.40;89.70;;;;;;5074662;28;20039;-84
2021/07/06 01:41:58;;;;;;;0.80;0.40;;;18.40;89.70;;;;;;5058788;28;20032;-85
2021/07/06 01:44:26;;;;;;;0.40;0.35;;;18.40;89.80;;;;;;5073908;28;20112;-82
2021/07/06 01:46:55;;;;;;;1.08;0.30;;;18.40;89.90;;;;;;5075678;28;20353;-84
2021/07/06 01:49:21;;;;;;;0.85;0.30;;;18.30;89.90;;;;;;5097425;28;20024;-82
2021/07/06 01:51:47;;;;;;;1.42;0.40;;;18.40;90.00;;;;;;5099466;28;20115;-84
2021/07/06 01:54:14;;;;;;;1.38;0.40;;;18.30;90.10;;;;;;5079905;28;20034;-84
2021/07/06 01:56:45;;;;;;;3.33;0.40;;;18.20;90.20;;;;;;5077056;28;20032;-84
2021/07/06 01:59:12;;;;;;;0.70;0.50;;;18.20;90.30;;;;;;5075458;28;20028;-85
2021/07/06 02:01:38;;;;;;;1.27;0.43;;;18.10;90.40;;;;;;5074310;28;20085;-85
2021/07/06 02:04:05;;;;;;;0.73;0.40;;;18.00;90.50;;;;;;5074425;28;20047;-84
2021/07/06 02:06:32;;;;;;;0.88;0.40;;;18.00;90.50;;;;;;5111043;28;20036;-84
2021/07/06 02:08:58;;;;;;;2.75;0.60;;;18.00;90.60;;;;;;5113286;28;20057;-83
2021/07/06 02:11:24;;;;;;;1.42;0.60;;;18.00;90.70;;;;;;5113229;28;20059;-83
2021/07/06 02:13:50;;;;;;;2.10;0.63;;;17.90;90.70;;;;;;5113121;28;20491;-84
2021/07/06 02:16:17;;;;;;;2.67;0.55;;;17.80;90.90;;;;;;5095103;28;20464;-82
2021/07/06 02:18:42;;;;;;;1.38;0.60;;;17.80;91.00;;;;;;5110673;28;20038;-83
2021/07/06 02:21:08;;;;;;;1.00;0.60;;;17.70;91.10;;;;;;5112328;28;20035;-83
2021/07/06 02:23:34;;;;;;;0.85;0.40;;;17.70;91.20;;;;;;5095861;28;20039;-85
2021/07/06 02:26:04;;;;;;;1.67;0.60;;;17.70;91.20;;;;;;5096245;28;20468;-84
2021/07/06 02:28:30;;;;;;;2.22;0.43;;;17.70;91.20;;;;;;5112020;28;20541;-82
2021/07/06 02:30:55;;;;;;;0.80;0.50;;;17.70;91.20;;;;;;5111677;28;20032;-84
2021/07/06 02:33:22;;;;;;;1.77;0.50;;;17.70;91.10;;;;;;5095350;28;20024;-84
2021/07/06 02:35:48;;;;;;;1.13;0.40;;;17.70;91.10;;;;;;5113769;28;20035;-84
2021/07/06 02:38:15;;;;;;;2.78;0.50;;;17.70;91.00;;;;;;5096319;28;20038;-85
2021/07/06 02:40:40;;;;;;;1.23;0.50;;;17.70;91.00;;;;;;5111271;28;20040;-82
2021/07/06 02:43:06;;;;;;;1.00;0.50;;;17.70;91.00;;;;;;5112822;28;20051;-84
2021/07/06 02:45:32;;;;;;;2.15;0.80;;;17.70;91.00;;;;;;5093990;28;20027;-82
2021/07/06 02:47:58;;;;;;;1.83;0.60;;;17.70;91.00;;;;;;5111619;28;20027;-88
2021/07/06 02:50:25;;;;;;;6.07;0.80;;;17.70;91.00;;;;;;5112854;28;20379;-85
2021/07/06 02:52:51;;;;;;;3.10;0.60;;;17.70;91.10;;;;;;5093768;28;20041;-85
2021/07/06 02:55:18;;;;;;;2.38;0.70;;;17.70;91.10;;;;;;5094743;28;20036;-85
2021/07/06 02:57:45;;;;;;;6.38;0.70;;;17.70;91.20;;;;;;5093804;28;20059;-87
2021/07/06 03:00:23;;;;;;;3.92;0.50;;;17.60;91.20;;;;;;5111486;28;20027;-84
2021/07/06 03:02:56;;;;;;;5.85;0.60;;;17.70;91.30;;;;;;5112104;28;20034;-87
2021/07/06 03:05:24;;;;;;;2.17;0.60;;;17.60;91.30;;;;;;5078036;28;20045;-84
2021/07/06 03:07:51;;;;;;;3.13;0.52;;;17.60;91.30;;;;;;5110671;28;20530;-87
2021/07/06 03:10:22;;;;;;;3.28;0.50;;;17.60;91.20;;;;;;5093812;28;20062;-85
2021/07/06 03:12:48;;;;;;;2.47;0.50;;;17.70;91.20;;;;;;5110415;28;20023;-85
2021/07/06 03:15:17;;;;;;;6.30;0.60;;;17.70;91.20;;;;;;5094693;28;20046;-85
2021/07/06 03:17:44;;;;;;;2.10;0.60;;;17.70;91.20;;;;;;5110361;28;20026;-85
2021/07/06 03:20:12;;;;;;;2.72;0.52;;;17.70;91.20;;;;;;5112330;28;20032;-87
2021/07/06 03:22:38;;;;;;;1.90;0.60;;;17.70;91.20;;;;;;5110677;28;20028;-82
2021/07/06 03:25:05;;;;;;;4.53;0.50;;;17.80;91.10;;;;;;5112730;28;20471;-86
2021/07/06 03:27:31;;;;;;;3.53;0.50;;;17.80;91.00;;;;;;5110878;28;20476;-86
2021/07/06 03:29:57;;;;;;;2.50;0.40;;;17.90;90.90;;;;;;5076374;28;20023;-86
2021/07/06 03:32:22;;;;;;;2.72;0.40;;;17.90;90.70;;;;;;5112775;28;20483;-88
2021/07/06 03:34:48;;;;;;;4.40;0.73;;;18.00;90.60;;;;;;5076587;28;20031;-83
2021/07/06 03:37:14;;;;;;;2.10;0.50;;;18.00;90.50;;;;;;5110581;28;20487;-85
2021/07/06 03:39:40;;;;;;;4.20;0.40;;;18.10;90.30;;;;;;5110429;28;20040;-82
2021/07/06 03:42:10;;;;;;;4.13;0.52;;;18.10;90.10;;;;;;5111443;28;20065;-82
2021/07/06 03:44:37;;;;;;;4.03;0.43;;;18.20;90.00;;;;;;5093157;28;20140;-81
2021/07/06 03:47:03;;;;;;;1.50;0.40;;;18.20;89.80;;;;;;5111042;28;20107;-82
2021/07/06 03:49:29;;;;;;;1.60;0.40;;;18.20;89.60;;;;;;5111253;28;20024;-83
2021/07/06 03:51:55;;;;;;;3.13;0.40;;;18.20;89.40;;;;;;5111057;28;20080;-82
2021/07/06 03:54:21;;;;;;;2.67;0.30;;;18.30;88.90;;;;;;5110336;28;20036;-83
2021/07/06 03:56:46;;;;;;;1.40;0.30;;;18.30;88.80;;;;;;5111003;28;20039;-82
2021/07/06 03:59:12;;;;;;;3.55;0.60;;;18.30;88.70;;;;;;5093678;28;20043;-85
2021/07/06 04:01:38;;;;;;;4.43;0.60;;;18.40;88.50;;;;;;5093036;28;20043;-82
2021/07/06 04:04:04;;;;;;;3.33;0.40;;;18.40;88.30;;;;;;5110786;28;20019;-81
2021/07/06 04:06:30;;;;;;;4.20;0.50;;;18.40;88.00;;;;;;5110096;28;20016;-82
2021/07/06 04:08:56;;;;;;;2.13;0.40;;;18.50;87.90;;;;;;5109154;28;20020;-83
2021/07/06 04:11:22;;;;;;;2.28;0.30;;;18.50;87.70;;;;;;5093166;28;20395;-82
2021/07/06 04:13:48;;;;;;;3.53;0.40;;;18.50;87.50;;;;;;5109005;28;20020;-80
2021/07/06 04:16:14;;;;;;;1.83;0.30;;;18.60;87.20;;;;;;5092551;28;20148;-82
2021/07/06 04:18:40;;;;;;;3.28;0.40;;;18.70;86.80;;;;;;5110621;28;20054;-82
2021/07/06 04:21:07;;;;;;;2.28;0.60;;;18.70;86.70;;;;;;5075017;28;20023;-84
2021/07/06 04:23:38;;;;;;;4.15;0.40;;;18.70;86.50;;;;;;5109585;28;20016;-84
2021/07/06 04:26:05;;;;;;;2.58;0.40;;;18.80;86.20;;;;;;5108621;28;20035;-83
2021/07/06 04:28:31;;;;;;;2.40;0.30;;;18.80;85.90;;;;;;5109341;28;20070;-81
2021/07/06 04:30:57;;;;;;;3.45;0.40;;;18.80;85.90;;;;;;5108556;28;20032;-83
2021/07/06 04:33:23;;;;;;;2.30;0.30;;;18.80;85.70;;;;;;5092493;28;20023;-82
2021/07/06 04:35:49;;;;;;;2.55;0.60;;;18.90;85.50;;;;;;5110015;28;20467;-81
2021/07/06 04:38:15;;;;;;;2.58;0.35;;;18.90;85.50;;;;;;5109185;28;20034;-83
2021/07/06 04:40:41;;;;;;;3.88;0.50;;;18.90;85.40;;;;;;5092471;28;20111;-83
2021/07/06 04:43:07;;;;;;;2.33;0.40;;;19.00;85.30;;;;;;5093185;28;20080;-83
2021/07/06 04:45:34;;;;;;;2.90;0.43;;;19.00;85.30;;;;;;5111251;28;20515;-83
2021/07/06 04:47:59;;;;;;;4.07;0.45;;;19.00;85.30;;;;;;5110946;28;20051;-82
2021/07/06 04:50:25;;;;;;;3.42;0.50;;;19.00;85.10;;;;;;5112164;28;20060;-84
2021/07/06 04:52:52;;;;;;;2.00;0.40;;;19.10;85.10;;;;;;5111675;28;20027;-83
2021/07/06 04:55:19;;;;;;;2.15;0.65;;;19.10;85.30;;;;;;5092905;28;20027;-83
2021/07/06 04:57:46;;;;;;;1.52;0.40;;;19.10;85.10;;;;;;5111454;28;20028;-82
2021/07/06 05:00:13;;;;;;;3.60;0.50;;;19.10;85.00;;;;;;5109009;28;20030;-84
2021/07/06 05:02:40;;;;;;;3.75;0.80;;;19.20;84.80;;;;;;5096296;28;20038;-83
2021/07/06 05:05:06;;;;;;;3.67;0.50;;;19.30;84.60;;;;;;5112370;28;20038;-82
2021/07/06 05:07:36;;;;;;;3.47;0.50;;;19.40;84.30;;;;;;5112771;28;20034;-83
2021/07/06 05:10:08;;;;;;;4.15;0.60;;;19.40;84.30;;;;;;5095270;28;20123;-84
2021/07/06 05:12:34;;;;;;;2.67;0.40;;;19.40;84.20;;;;;;5112901;28;20106;-85
2021/07/06 05:15:00;;;;;;;4.95;0.60;;;19.40;84.30;;;;;;5113508;28;20115;-85
2021/07/06 05:17:25;;;;;;;3.42;0.57;;;19.50;84.30;;;;;;5114977;28;20035;-84
2021/07/06 05:19:51;;;;;;;3.60;0.50;;;19.50;84.20;;;;;;5096119;28;20035;-84
2021/07/06 05:22:17;;;;;;;4.00;0.50;;;19.50;84.50;;;;;;5112103;28;20114;-84
2021/07/06 05:24:43;;;;;;;3.40;0.47;;;19.50;84.40;;;;;;5112994;28;20165;-86
2021/07/06 05:27:08;;;;;;;1.73;0.50;;;19.60;84.10;;;;;;5112226;28;20463;-82
2021/07/06 05:29:34;;;;;;;4.55;0.50;;;19.70;84.30;;;;;;5114421;28;20440;-80
2021/07/06 05:32:01;;;;;;;3.40;0.50;;;19.70;84.30;;;;;;5095535;28;20034;-82
2021/07/06 05:34:26;;;;;;;1.63;0.40;;;19.80;83.90;;;;;;5096484;28;20112;-85
2021/07/06 05:36:53;;;;;;;1.75;0.50;;;19.80;83.90;;;;;;5096516;28;20028;-86
2021/07/06 05:39:19;;;;;;;3.00;0.60;;;19.80;83.80;;;;;;5096204;28;20328;-86
2021/07/06 05:41:45;;;;;;;3.40;0.50;;;19.80;83.70;;;;;;5113717;28;20556;-87
2021/07/06 05:44:12;;;;;;;1.00;0.38;;;19.90;83.50;;;;;;5111695;28;20479;-85
2021/07/06 05:46:37;;;;;;;1.38;0.60;;;19.90;84.20;;;;;;5096421;28;20034;-88
2021/07/06 05:49:03;;;;;;;2.80;0.50;;;19.90;83.60;;;;;;5095431;28;20028;-84
2021/07/06 05:51:29;;;;;;;3.53;0.50;;;19.90;83.40;;;;;;5112700;28;20020;-87
2021/07/06 05:53:55;;;;;;;2.05;0.30;;;19.90;84.10;;;;;;5114145;28;20038;-84
2021/07/06 05:56:20;;;;;;;0.88;0.40;;;19.90;83.60;;;;;;5112357;28;20165;-85
2021/07/06 05:58:46;;;;;;;3.30;0.40;;;19.90;83.60;;;;;;5095345;28;20032;-86
2021/07/06 06:01:13;;;;;;;2.53;0.47;;;19.90;83.60;;;;;;5112493;28;20447;-85
2021/07/06 06:03:38;;;;;;;0.95;0.40;;;19.90;83.60;;;;;;5113885;28;20027;-85
2021/07/06 06:06:04;;;;;;;1.27;0.30;;;19.90;83.30;;;;;;5094649;28;20032;-84
2021/07/06 06:08:30;;;;;;;0.90;0.38;;;19.90;83.50;;;;;;5112021;28;20027;-87
2021/07/06 06:10:56;;;;;;;1.00;0.30;;;19.90;83.40;;;;;;5112617;28;20032;-84
2021/07/06 06:13:22;;;;;;;1.02;0.30;;;19.90;82.70;;;;;;5094676;28;20024;-84
2021/07/06 06:15:47;;;;;;;1.35;0.30;;;19.90;82.50;;;;;;5095607;28;20034;-86
2021/07/06 06:18:13;;;;;;;1.00;0.30;;;19.90;82.60;;;;;;5111055;28;20436;-84
2021/07/06 06:20:39;;;;;;;0.50;0.30;;;19.90;82.80;;;;;;5114068;28;20035;-83
2021/07/06 06:23:10;;;;;;;1.73;0.30;;;19.90;83.10;;;;;;5118072;28;20040;-83
2021/07/06 06:25:42;;;;;;;1.35;0.32;;;19.80;83.40;;;;;;5102276;28;20040;-85
2021/07/06 06:28:08;;;;;;;1.33;0.30;;;19.80;83.60;;;;;;5082920;28;20028;-82
2021/07/06 06:30:34;;;;;;;2.13;0.40;;;19.80;83.70;;;;;;5111610;28;20756;-84
2021/07/06 06:33:00;;;;;;;0.80;0.30;;;19.80;83.80;;;;;;5094434;28;20032;-86
2021/07/06 06:35:25;;;;;;;1.88;0.40;;;19.80;83.50;;;;;;5110939;28;20035;-87
2021/07/06 06:37:51;;;;;;;0.70;0.30;;;19.90;83.70;;;;;;5111431;28;20399;-85
2021/07/06 06:40:17;;;;;;;1.70;0.38;;;19.90;83.70;;;;;;5110417;28;20055;-85
2021/07/06 06:42:43;;;;;;;1.65;0.30;;;20.00;83.60;;;;;;5111553;28;20039;-86
2021/07/06 06:45:11;;;;;;;1.25;0.30;;;20.00;83.10;;;;;;5076968;28;20059;-84
2021/07/06 06:47:37;;;;;;;0.90;0.30;;;20.10;83.20;;;;;;5094594;28;20122;-85
2021/07/06 06:50:05;;;;;;;1.27;0.20;;;20.00;83.00;;;;;;5111254;28;20523;-85
2021/07/06 06:52:31;;;;;;;1.38;0.20;;;20.00;83.20;;;;;;5111532;28;20024;-86
2021/07/06 06:54:57;;;;;;;2.22;0.30;;;20.00;83.40;;;;;;5111394;28;20024;-85
2021/07/06 06:57:24;;;;;;;1.25;0.20;;;20.00;82.90;;;;;;5093504;28;20028;-85
2021/07/06 06:59:49;;;;;;;1.42;0.28;;;20.10;82.80;;;;;;5111725;28;20100;-85
2021/07/06 07:02:22;;;;;;;2.95;0.30;;;20.10;82.60;;;;;;5093575;28;20096;-83
2021/07/06 07:04:52;;;;;;;0.40;0.15;;;20.10;82.00;;;;;;5112438;28;20127;-87
2021/07/06 07:07:20;;;;;;;1.15;0.20;;;20.20;81.00;;;;;;5111753;28;20032;-85
2021/07/06 07:09:46;;;;;;;0.70;0.20;;;20.20;80.20;;;;;;5110938;28;20126;-86
2021/07/06 07:12:12;;;;;;;0.45;0.20;;;20.20;80.50;;;;;;5094231;28;20118;-82
2021/07/06 07:14:39;;;;;;;1.30;0.20;;;20.20;80.30;;;;;;5112197;28;20032;-84
2021/07/06 07:17:06;;;;;;;0.82;0.20;;;20.20;79.80;;;;;;5094395;28;20024;-85
2021/07/06 07:19:32;;;;;;;0.40;0.15;;;20.20;79.20;;;;;;5110283;28;20110;-85
2021/07/06 07:21:58;;;;;;;0.60;0.20;;;20.20;78.80;;;;;;5094323;28;20103;-86
2021/07/06 07:24:23;;;;;;;1.40;0.10;;;20.20;78.80;;;;;;5092538;28;20460;-84
2021/07/06 07:26:49;;;;;;;0.63;0.20;;;20.20;78.80;;;;;;5112272;28;20026;-86
2021/07/06 07:29:15;;;;;;;1.98;0.15;;;20.20;78.50;;;;;;5110558;28;20446;-84
2021/07/06 07:31:42;;;;;;;2.40;0.20;;;20.20;78.00;;;;;;5093568;28;20431;-84
2021/07/06 07:34:07;;;;;;;1.73;0.20;;;20.20;77.50;;;;;;5077194;28;20429;-86
2021/07/06 07:36:33;;;;;;;2.35;0.20;;;20.20;78.10;;;;;;5076521;28;20027;-84
2021/07/06 07:38:59;;;;;;;1.83;0.20;;;20.20;77.30;;;;;;5110818;28;20031;-86
2021/07/06 07:41:25;;;;;;;1.73;0.10;;;20.20;77.40;;;;;;5110030;28;20118;-86
2021/07/06 07:43:55;;;;;;;1.08;0.28;;;20.20;75.80;;;;;;5112026;28;20101;-86
2021/07/06 07:46:25;;;;;;;0.60;0.20;;;20.30;76.70;;;;;;5093924;28;20042;-82
2021/07/06 07:48:51;;;;;;;1.55;0.17;;;20.30;76.70;;;;;;5113820;28;20467;-87
2021/07/06 07:51:17;;;;;;;0.77;0.15;;;20.40;76.60;;;;;;5113334;28;20031;-84
2021/07/06 07:53:44;;;;;;;0.60;0.10;;;20.50;75.80;;;;;;5112224;28;20114;-85
2021/07/06 07:56:11;;;;;;;1.35;0.30;;;20.50;76.10;;;;;;5110619;28;20016;-87
2021/07/06 07:58:37;;;;;;;1.02;0.10;;;20.60;75.90;;;;;;5111240;28;20043;-85
2021/07/06 08:01:03;;;;;;;1.15;0.20;;;20.60;75.00;;;;;;5093865;28;20535;-86
2021/07/06 08:03:28;;;;;;;0.47;0.10;;;20.70;75.20;;;;;;5110718;28;20032;-86
2021/07/06 08:05:57;;;;;;;2.55;0.20;;;20.80;75.10;;;;;;5093593;28;20034;-86
2021/07/06 08:08:22;;;;;;;0.60;0.10;;;20.90;74.30;;;;;;5109862;28;20028;-84
2021/07/06 08:10:52;;;;;;;1.40;0.20;;;20.90;71.80;;;;;;5093336;28;20032;-86
2021/07/06 08:13:21;;;;;;;1.10;0.10;;;20.90;73.40;;;;;;5094539;28;20542;-85
2021/07/06 08:15:47;;;;;;;1.98;0.20;;;20.90;72.40;;;;;;5110044;28;20035;-88
2021/07/06 08:18:13;;;;;;;2.22;0.35;;;21.00;72.80;;;;;;5111983;28;20105;-87
2021/07/06 08:20:38;;;;;;;1.98;0.17;;;21.10;72.40;;;;;;5095750;28;20046;-87
2021/07/06 08:23:04;;;;;;;0.70;0.20;;;21.10;72.50;;;;;;5112522;28;20048;-87
2021/07/06 08:25:30;;;;;;;0.98;0.10;;;21.30;72.70;;;;;;5110204;28;20482;-87
2021/07/06 08:27:55;;;;;;;1.00;0.30;;;21.50;72.00;;;;;;5111573;28;20058;-87
2021/07/06 08:30:21;;;;;;;0.77;0.10;;;21.90;71.60;;;;;;5094180;28;20073;-88
2021/07/06 08:32:47;;;;;;;0.93;0.17;;;22.20;69.80;;;;;;5111959;28;20146;-86
2021/07/06 08:35:13;;;;;;;0.57;0.20;;;22.40;69.00;;;;;;5099229;28;20027;-85
2021/07/06 08:37:39;;;;;;;0.77;0.20;;;22.70;69.50;;;;;;5115835;28;20139;-86
2021/07/06 08:40:06;;;;;;;0.65;0.20;;;23.40;67.90;;;;;;5097997;28;20035;-88
2021/07/06 08:42:33;;;;;;;1.02;0.10;;;24.10;67.00;;;;;;5097197;28;20035;-88
2021/07/06 08:44:58;;;;;;;0.65;0.10;;;24.60;65.40;;;;;;5115028;28;20044;-86
2021/07/06 08:47:24;;;;;;;2.97;0.10;;;24.70;63.50;;;;;;5114236;28;20035;-87
2021/07/06 08:49:52;;;;;;;1.15;0.10;;;24.40;63.50;;;;;;5113632;28;20218;-87
2021/07/06 08:52:19;;;;;;;0.63;0.10;;;24.10;63.50;;;;;;5114192;28;20030;-87
2021/07/06 08:54:46;;;;;;;2.28;0.20;;;23.80;63.60;;;;;;5113139;28;20027;-84
2021/07/06 08:57:11;;;;;;;3.42;0.20;;;23.40;64.00;;;;;;5097170;28;20527;-86
2021/07/06 08:59:38;;;;;;;3.22;0.10;;;23.00;65.80;;;;;;5113609;28;20122;-86
2021/07/06 09:02:05;;;;;;;0.75;0.15;;;23.10;65.10;;;;;;5114159;28;20019;-86
2021/07/06 09:04:45;;;;;;;0.90;0.10;;;23.30;65.10;;;;;;5096701;28;20484;-84
2021/07/06 09:07:11;;;;;;;2.35;0.30;;;23.40;65.00;;;;;;5114854;28;20020;-87
2021/07/06 09:09:36;;;;;;;2.05;0.20;;;23.70;65.30;;;;;;5113221;28;20047;-87
2021/07/06 09:12:02;;;;;;;1.92;0.20;;;24.20;62.20;;;;;;5097181;28;20086;-86
2021/07/06 09:14:30;;;;;;;0.82;0.20;;;24.30;62.10;;;;;;5114764;28;20024;-87
2021/07/06 09:17:22;;;;;;;4.50;0.17;;;24.40;62.30;;;;;;5113515;28;20061;-86
2021/07/06 09:19:50;;;;;;;1.02;0.20;;;24.50;60.30;;;;;;5114432;28;20026;-85
2021/07/06 09:22:20;;;;;;;1.77;0.20;;;24.50;60.30;;;;;;5113704;28;20096;-87
2021/07/06 09:24:50;;;;;;;1.08;0.20;;;24.20;61.00;;;;;;5112699;28;20030;-87
2021/07/06 09:27:26;;;;;;;0.80;0.20;;;24.10;62.00;;;;;;5114074;28;20077;-86
2021/07/06 09:30:04;;;;;;;1.42;0.20;;;24.50;62.20;;;;;;5113217;28;20028;-88
2021/07/06 09:32:30;;;;;;;1.83;0.17;;;24.90;60.30;;;;;;5113799;28;20479;-86
2021/07/06 09:34:56;;;;;;;2.67;0.20;;;25.00;61.10;;;;;;5113715;28;20028;-87
2021/07/06 09:37:21;;;;;;;1.60;0.15;;;24.70;59.10;;;;;;5081574;28;20031;-85
2021/07/06 09:39:47;;;;;;;1.38;0.15;;;24.30;61.00;;;;;;5114865;28;20034;-84
2021/07/06 09:42:15;;;;;;;1.67;0.20;;;24.70;61.60;;;;;;5115114;28;20043;-87
2021/07/06 09:44:45;;;;;;;1.55;0.20;;;25.20;60.10;;;;;;5113497;28;20525;-86
2021/07/06 09:47:13;;;;;;;1.17;0.10;;;25.40;59.40;;;;;;5096501;28;20407;-87
2021/07/06 09:49:53;;;;;;;2.50;0.28;;;25.20;59.40;;;;;;5113701;28;20016;-84
2021/07/06 09:52:20;;;;;;;1.08;0.20;;;25.40;59.60;;;;;;5113247;28;20023;-85
2021/07/06 09:54:48;;;;;;;0.85;0.20;;;25.90;59.20;;;;;;5112650;28;20498;-87
2021/07/06 09:57:22;;;;;;;0.47;0.10;;;25.80;58.20;;;;;;5122815;28;20042;-87
2021/07/06 10:00:09;;;;;;;1.55;0.20;;;25.70;59.40;;;;;;5112816;28;20360;-89
2021/07/06 10:02:36;;;;;;;2.10;0.20;;;26.00;59.40;;;;;;5113914;28;20031;-88
2021/07/06 10:05:08;;;;;;;1.42;0.15;;;26.00;57.50;;;;;;5114680;28;20074;-89
2021/07/06 10:07:36;;;;;;;3.45;0.20;;;25.80;56.70;;;;;;5114729;28;20051;-88
2021/07/06 10:10:08;;;;;;;1.25;0.20;;;25.60;56.80;;;;;;5116233;28;20538;-88
2021/07/06 10:12:36;;;;;;;2.03;0.20;;;25.70;56.20;;;;;;5117946;28;20023;-88
2021/07/06 10:15:03;;;;;;;2.88;0.20;;;25.70;55.00;;;;;;5116655;28;20111;-87
2021/07/06 10:17:29;;;;;;;2.10;0.20;;;25.60;54.10;;;;;;5116919;28;20160;-88
2021/07/06 10:20:04;;;;;;;1.40;0.20;;;25.80;55.20;;;;;;5102478;28;20028;-88
2021/07/06 10:22:49;;;;;;;1.77;0.10;;;26.20;54.40;;;;;;5081695;28;20103;-86
2021/07/06 10:25:15;;;;;;;6.13;0.20;;;26.50;52.30;;;;;;5122340;28;20027;-83
2021/07/06 10:27:51;;;;;;;2.40;0.20;;;26.80;53.00;;;;;;5122734;28;20034;-87
2021/07/06 10:30:20;;;;;;;3.15;0.30;;;26.90;51.00;;;;;;5123565;28;20058;-85
2021/07/06 10:32:50;;;;;;;1.77;0.17;;;26.90;50.00;;;;;;5127113;28;20003;-89
2021/07/06 10:35:36;;;;;;;4.50;0.20;;;27.10;50.30;;;;;;5134608;28;20114;-85
2021/07/06 10:38:31;;;;;;;2.00;0.22;;;27.30;50.10;;;;;;5135578;28;20357;-84
2021/07/06 10:40:56;;;;;;;1.13;0.10;;;27.50;50.00;;;;;;5134102;28;20028;-85
2021/07/06 10:43:37;;;;;;;2.22;0.20;;;27.60;49.60;;;;;;5137635;28;20077;-87
2021/07/06 10:46:21;;;;;;;2.05;0.20;;;27.70;49.10;;;;;;5136382;28;20107;-84
2021/07/06 10:49:08;;;;;;;2.95;0.20;;;27.80;47.20;;;;;;5132220;28;20031;-90
2021/07/06 10:51:34;;;;;;;1.85;0.20;;;27.50;47.80;;;;;;5132601;28;20027;-86
2021/07/06 10:54:11;;;;;;;4.18;0.20;;;27.60;48.50;;;;;;5135907;28;20027;-84
2021/07/06 10:56:44;;;;;;;2.55;0.20;;;27.70;48.10;;;;;;5134339;28;20053;-85
2021/07/06 10:59:31;;;;;;;2.63;0.30;;;27.90;46.70;;;;;;5132761;28;20027;-86
2021/07/06 11:01:58;;;;;;;1.98;0.20;;;27.80;46.50;;;;;;5133156;27;20126;-89
2021/07/06 11:04:42;;;;;;;2.25;0.17;;;27.70;46.30;;;;;;5134729;28;20051;-87
2021/07/06 11:07:12;;;;;;;1.63;0.22;;;27.40;46.60;;;;;;5133030;28;20023;-87
2021/07/06 11:09:38;;;;;;;1.42;0.25;;;27.10;47.50;;;;;;5134424;28;20030;-87
2021/07/06 11:12:22;;;;;;;2.90;0.30;;;26.90;48.50;;;;;;5133208;28;20099;-87
2021/07/06 11:14:50;;;;;;;1.25;0.20;;;26.90;49.40;;;;;;5130704;28;20035;-86
2021/07/06 11:17:48;;;;;;;1.48;0.20;;;27.00;49.20;;;;;;5122086;28;20027;-89
2021/07/06 11:20:28;;;;;;;1.50;0.20;;;27.10;49.00;;;;;;5118897;28;20027;-89
2021/07/06 11:22:56;;;;;;;2.00;0.30;;;26.90;49.10;;;;;;5117558;28;20057;-88
2021/07/06 11:25:24;;;;;;;2.42;0.20;;;26.90;50.10;;;;;;5118937;28;20030;-89
2021/07/06 11:28:26;;;;;;;1.77;0.30;;;27.10;50.10;;;;;;5118187;28;20054;-85
2021/07/06 11:31:01;;;;;;;2.15;0.20;;;27.40;49.20;;;;;;5117438;28;20024;-88
2021/07/06 11:33:30;;;;;;;4.93;0.20;;;27.20;49.10;;;;;;5118937;28;20049;-85
2021/07/06 11:36:02;;;;;;;1.65;0.30;;;27.10;49.90;;;;;;5118922;28;20028;-85
2021/07/06 11:38:42;;;;;;;2.75;0.30;;;27.00;49.30;;;;;;5120906;28;20056;-89
2021/07/06 11:41:11;;;;;;;1.88;0.22;;;27.20;49.10;;;;;;5121661;28;20032;-89
2021/07/06 11:43:38;;;;;;;3.55;0.30;;;27.60;49.50;;;;;;5119611;28;20573;-83
2021/07/06 11:46:12;;;;;;;1.15;0.25;;;27.80;48.50;;;;;;5118971;28;20134;-84
2021/07/06 11:48:41;;;;;;;1.10;0.17;;;27.90;49.40;;;;;;5116945;28;20027;-88
2021/07/06 11:51:09;;;;;;;1.15;0.20;;;28.00;48.30;;;;;;5114954;28;20023;-81
2021/07/06 11:53:37;;;;;;;1.75;0.20;;;27.80;46.90;;;;;;5118217;28;20030;-87
2021/07/06 11:56:05;;;;;;;1.40;0.20;;;27.60;48.80;;;;;;5116865;28;20024;-83
2021/07/06 11:58:33;;;;;;;4.40;0.40;;;27.60;48.40;;;;;;5082642;28;20037;-87
2021/07/06 12:01:05;;;;;;;2.83;0.20;;;27.10;48.30;;;;;;5118315;28;20023;-89
2021/07/06 12:03:33;;;;;;;2.88;0.20;;;26.80;50.00;;;;;;5117805;28;20028;-85
2021/07/06 12:06:10;;;;;;;4.88;0.28;;;26.50;50.70;;;;;;5119178;28;20020;-88
2021/07/06 12:08:38;;;;;;;2.78;0.30;;;26.40;51.00;;;;;;5117070;28;20023;-83
2021/07/06 12:11:08;;;;;;;1.35;0.30;;;26.40;51.00;;;;;;5120812;28;20468;-86
2021/07/06 12:14:00;;;;;;;2.38;0.20;;;26.40;51.00;;;;;;5122899;28;20030;-85
2021/07/06 12:16:33;;;;;;;2.92;0.25;;;26.60;51.10;;;;;;5122276;28;20015;-87
2021/07/06 12:19:10;;;;;;;3.05;0.20;;;27.10;50.60;;;;;;5124053;28;20027;-87
2021/07/06 12:21:56;;;;;;;4.15;0.30;;;27.20;49.40;;;;;;5122089;28;20126;-89
2021/07/06 12:24:26;;;;;;;2.55;0.30;;;27.00;49.90;;;;;;5122241;28;20023;-86
2021/07/06 12:26:56;;;;;;;3.50;0.35;;;26.60;49.60;;;;;;5122959;28;20028;-85
2021/07/06 12:29:33;;;;;;;4.47;0.30;;;26.50;50.10;;;;;;5120762;28;20022;-88
2021/07/06 12:32:00;;;;;;;3.20;0.20;;;26.50;49.70;;;;;;5126831;28;20035;-89
2021/07/06 12:34:39;;;;;;;3.05;0.20;;;26.60;50.10;;;;;;5121787;28;20024;-90
2021/07/06 12:37:08;;;;;;;4.25;0.30;;;26.80;50.00;;;;;;5119185;28;20057;-89
2021/07/06 12:40:01;;;;;;;4.07;0.40;;;26.70;49.20;;;;;;5092112;28;20028;-88
2021/07/06 12:42:28;;;;;;;3.80;0.30;;;26.60;48.80;;;;;;5123648;28;20242;-86
2021/07/06 12:44:58;;;;;;;4.05;0.35;;;26.40;48.70;;;;;;5107997;28;20051;-88
2021/07/06 12:47:32;;;;;;;2.60;0.30;;;26.20;49.40;;;;;;5122021;28;20020;-88
2021/07/06 12:50:05;;;;;;;2.97;0.30;;;26.10;49.70;;;;;;5105102;28;20122;-85
2021/07/06 12:52:43;;;;;;;1.85;0.40;;;26.30;49.90;;;;;;5123328;28;20049;-87
2021/07/06 12:55:30;;;;;;;4.78;0.40;;;26.60;50.40;;;;;;5121536;28;20046;-86